createdAt,value
2019-02-24T00:00:39.990Z,86.29
2019-02-24T00:01:40.008Z,86.29
2019-02-24T00:02:40.013Z,86.1
2019-02-24T00:03:40.024Z,86.38
2019-02-24T00:04:40.038Z,86.19
2019-02-24T00:05:40.047Z,87.23
2019-02-24T00:06:40.061Z,86.76
2019-02-24T00:09:40.093Z,86.94
2019-02-24T00:10:40.105Z,87.61
2019-02-24T00:11:54.777Z,87.98
2019-02-24T00:12:40.127Z,88.17
2019-02-24T00:13:40.139Z,87.98
2019-02-24T00:14:40.150Z,86.94
2019-02-24T00:15:40.168Z,87.23
2019-02-24T00:16:40.173Z,87.7
2019-02-24T00:17:40.183Z,87.98
2019-02-24T00:18:40.199Z,88.08
2019-02-24T00:19:40.206Z,88.27
2019-02-24T00:20:40.217Z,87.98
2019-02-24T00:21:40.230Z,87.89
2019-02-24T00:22:40.241Z,88.27
2019-02-24T00:24:40.265Z,88.27
2019-02-24T00:26:40.041Z,89.59
2019-02-24T00:27:54.964Z,89.31
2019-02-24T00:28:40.308Z,89.97
2019-02-24T00:29:40.320Z,89.03
2019-02-24T00:30:40.332Z,89.97
2019-02-24T00:31:40.346Z,90.16
2019-02-24T00:32:40.353Z,90.63
2019-02-24T00:33:40.365Z,90.82
2019-02-24T00:34:40.377Z,90.54
2019-02-24T00:35:40.388Z,90.16
2019-02-24T00:36:40.402Z,90.54
2019-02-24T00:37:40.410Z,89.78
2019-02-24T00:38:40.427Z,90.73
2019-02-24T00:40:40.445Z,90.16
2019-02-24T00:42:40.466Z,90.16
2019-02-24T00:43:55.142Z,89.97
2019-02-24T00:44:40.490Z,90.16
2019-02-24T00:45:40.502Z,89.97
2019-02-24T00:46:40.516Z,90.16
2019-02-24T00:47:40.524Z,90.54
2019-02-24T00:48:40.538Z,90.16
2019-02-24T00:49:40.550Z,90.54
2019-02-24T00:50:40.557Z,91.29
2019-02-24T00:51:40.572Z,90.91
2019-02-24T00:52:40.584Z,91.1
2019-02-24T00:53:40.591Z,91.1
2019-02-24T00:55:40.619Z,90.73
2019-02-24T00:56:40.627Z,90.73
2019-02-24T00:57:40.637Z,90.91
2019-02-24T00:58:55.312Z,91.2
2019-02-24T00:59:40.665Z,91.2
2019-02-24T01:00:40.678Z,90.82
2019-02-24T01:01:40.685Z,89.87
2019-02-24T01:02:40.742Z,89.5
2019-02-24T01:03:40.707Z,89.78
2019-02-24T01:04:40.717Z,89.97
2019-02-24T01:05:40.729Z,89.4
2019-02-24T01:06:40.743Z,89.03
2019-02-24T01:07:40.751Z,89.5
2019-02-24T01:08:40.763Z,89.69
2019-02-24T01:09:40.775Z,89.69
2019-02-24T01:10:40.794Z,89.69
2019-02-24T01:11:40.806Z,89.5
2019-02-24T01:12:40.812Z,88.84
2019-02-24T01:13:40.825Z,89.12
2019-02-24T01:14:40.832Z,89.22
2019-02-24T01:15:40.841Z,89.78
2019-02-24T01:16:40.854Z,89.5
2019-02-24T01:17:40.869Z,89.5
2019-02-24T01:18:40.879Z,89.5
2019-02-24T01:19:40.888Z,89.69
2019-02-24T01:20:40.900Z,89.5
2019-02-24T01:21:40.911Z,89.4
2019-02-24T01:22:41.034Z,89.5
2019-02-24T01:23:40.934Z,89.59
2019-02-24T01:24:40.945Z,89.87
2019-02-24T01:25:40.958Z,89.12
2019-02-24T01:26:40.967Z,89.87
2019-02-24T01:27:40.734Z,89.78
2019-02-24T01:28:40.990Z,89.78
2019-02-24T01:29:41.001Z,90.44
2019-02-24T01:30:55.676Z,90.73
2019-02-24T01:31:41.024Z,90.63
2019-02-24T01:32:41.034Z,91.29
2019-02-24T01:33:41.046Z,92.33
2019-02-24T01:34:41.069Z,92.71
2019-02-24T01:35:41.070Z,93.09
2019-02-24T01:36:41.080Z,93.66
2019-02-24T01:37:41.095Z,94.03
2019-02-24T01:38:41.102Z,94.03
2019-02-24T01:39:41.114Z,93.66
2019-02-24T01:40:41.124Z,94.22
2019-02-24T01:41:41.136Z,94.7
2019-02-24T01:42:41.146Z,94.84
2019-02-24T01:43:41.159Z,95.12
2019-02-24T01:45:41.182Z,95.36
2019-02-24T01:46:55.855Z,95.4
2019-02-24T01:47:41.204Z,95.21
2019-02-24T01:48:41.215Z,95.21
2019-02-24T01:49:41.229Z,95.31
2019-02-24T01:50:41.237Z,95.21
2019-02-24T01:51:41.248Z,95.31
2019-02-24T01:52:41.258Z,95.5
2019-02-24T01:53:41.279Z,95.87
2019-02-24T01:55:41.295Z,95.78
2019-02-24T01:56:41.303Z,95.97
2019-02-24T01:57:41.314Z,95.78
2019-02-24T01:58:41.335Z,95.97
2019-02-24T01:59:41.337Z,95.78
2019-02-24T02:00:41.351Z,95.59
2019-02-24T02:01:41.362Z,95.87
2019-02-24T02:02:56.033Z,95.78
2019-02-24T02:03:41.384Z,95.59
2019-02-24T02:04:41.395Z,96.06
2019-02-24T02:05:41.408Z,96.35
2019-02-24T02:06:41.467Z,95.68
2019-02-24T02:07:41.429Z,96.06
2019-02-24T02:08:41.438Z,96.16
2019-02-24T02:09:41.455Z,96.35
2019-02-24T02:10:41.462Z,96.35
2019-02-24T02:11:41.471Z,96.16
2019-02-24T02:12:41.485Z,95.87
2019-02-24T02:13:41.494Z,95.78
2019-02-24T02:14:41.504Z,95.5
2019-02-24T02:16:41.528Z,95.78
2019-02-24T02:17:41.540Z,95.21
2019-02-24T02:18:56.211Z,95.5
2019-02-24T02:19:41.560Z,95.31
2019-02-24T02:20:41.571Z,96.54
2019-02-24T02:21:41.582Z,96.35
2019-02-24T02:22:41.601Z,95.97
2019-02-24T02:23:41.605Z,95.87
2019-02-24T02:24:41.615Z,95.78
2019-02-24T02:25:41.677Z,96.63
2019-02-24T02:26:41.638Z,96.35
2019-02-24T02:27:41.648Z,95.78
2019-02-24T02:28:46.600Z,95.68
2019-02-24T02:29:41.671Z,96.25
2019-02-24T02:30:41.683Z,96.73
2019-02-24T02:31:41.700Z,97.01
2019-02-24T02:32:41.707Z,97.1
2019-02-24T02:33:56.381Z,97.01
2019-02-24T02:34:41.731Z,96.91
2019-02-24T02:35:41.739Z,97.29
2019-02-24T02:36:41.751Z,97.29
2019-02-24T02:37:41.822Z,97.2
2019-02-24T02:38:41.775Z,97.29
2019-02-24T02:39:41.782Z,97.58
2019-02-24T02:40:41.794Z,97.39
2019-02-24T02:41:41.809Z,97.77
2019-02-24T02:42:41.821Z,97.39
2019-02-24T02:43:41.832Z,98.05
2019-02-24T02:46:41.618Z,97.96
2019-02-24T02:47:41.871Z,97.96
2019-02-24T02:48:41.885Z,97.96
2019-02-24T02:49:41.910Z,97.96
2019-02-24T02:50:41.903Z,97.86
2019-02-24T02:51:41.917Z,97.48
2019-02-24T02:52:41.927Z,97.58
2019-02-24T02:53:41.718Z,97.58
2019-02-24T02:54:41.951Z,97.58
2019-02-24T02:55:41.960Z,97.58
2019-02-24T02:56:41.971Z,97.96
2019-02-24T02:57:41.983Z,97.96
2019-02-24T02:58:41.994Z,97.77
2019-02-24T02:59:42.005Z,98.14
2019-02-24T03:00:42.016Z,98.52
2019-02-24T03:02:42.037Z,98.52
2019-02-24T03:03:42.054Z,98.71
2019-02-24T03:04:42.058Z,98.43
2019-02-24T03:05:56.732Z,98.43
2019-02-24T03:06:42.081Z,99.37
2019-02-24T03:07:42.094Z,98.33
2019-02-24T03:08:42.102Z,98.61
2019-02-24T03:09:42.113Z,98.24
2019-02-24T03:10:42.136Z,98.33
2019-02-24T03:11:42.138Z,97.96
2019-02-24T03:12:42.148Z,97.96
2019-02-24T03:13:42.276Z,98.24
2019-02-24T03:14:42.170Z,97.96
2019-02-24T03:15:42.184Z,97.96
2019-02-24T03:16:42.191Z,97.86
2019-02-24T03:19:42.234Z,97.58
2019-02-24T03:20:42.241Z,97.48
2019-02-24T03:21:56.909Z,97.58
2019-02-24T03:22:42.261Z,97.53
2019-02-24T03:23:42.268Z,96.96
2019-02-24T03:24:42.282Z,96.91
2019-02-24T03:25:42.291Z,96.63
2019-02-24T03:26:42.300Z,96.73
2019-02-24T03:27:42.413Z,97.01
2019-02-24T03:28:42.326Z,97.01
2019-02-24T03:29:42.335Z,96.3
2019-02-24T03:30:42.350Z,96.78
2019-02-24T03:31:42.361Z,96.59
2019-02-24T03:33:44.717Z,95.92
2019-02-24T03:34:42.396Z,95.83
2019-02-24T03:35:42.401Z,95.83
2019-02-24T03:36:42.418Z,95.45
2019-02-24T03:37:57.087Z,95.07
2019-02-24T03:38:42.441Z,94.6
2019-02-24T03:39:42.450Z,94.7
2019-02-24T03:40:42.457Z,94.51
2019-02-24T03:41:42.469Z,94.41
2019-02-24T03:42:42.485Z,94.03
2019-02-24T03:43:42.496Z,94.13
2019-02-24T03:44:42.503Z,94.32
2019-02-24T03:45:42.513Z,94.32
2019-02-24T03:47:42.535Z,94.41
2019-02-24T03:48:42.549Z,94.7
2019-02-24T03:49:42.554Z,94.32
2019-02-24T03:51:42.580Z,93.28
2019-02-24T03:52:42.589Z,93.66
2019-02-24T03:53:57.263Z,93.09
2019-02-24T03:54:42.614Z,93.18
2019-02-24T03:55:42.649Z,92.9
2019-02-24T03:56:42.636Z,92.71
2019-02-24T03:57:42.649Z,91.77
2019-02-24T03:58:42.663Z,91.86
2019-02-24T03:59:42.667Z,91.2
2019-02-24T04:00:42.679Z,91.01
2019-02-24T04:01:42.706Z,90.91
2019-02-24T04:02:42.707Z,91.1
2019-02-24T04:03:42.712Z,91.01
2019-02-24T04:04:42.723Z,91.01
2019-02-24T04:06:43.256Z,90.91
2019-02-24T04:07:42.762Z,91.2
2019-02-24T04:08:57.446Z,90.91
2019-02-24T04:09:42.782Z,90.91
2019-02-24T04:10:42.794Z,91.2
2019-02-24T04:11:42.806Z,91.29
2019-02-24T04:12:42.815Z,91.01
2019-02-24T04:13:42.829Z,91.1
2019-02-24T04:14:42.835Z,90.63
2019-02-24T04:15:42.849Z,90.35
2019-02-24T04:17:42.872Z,90.06
2019-02-24T04:20:42.912Z,88.74
2019-02-24T04:21:42.981Z,88.27
2019-02-24T04:22:42.928Z,88.65
2019-02-24T04:23:42.936Z,89.69
2019-02-24T04:24:42.951Z,90.91
2019-02-24T04:25:42.960Z,91.77
2019-02-24T04:26:42.969Z,92.52
2019-02-24T04:27:42.982Z,92.9
2019-02-24T04:28:42.998Z,93.28
2019-02-24T04:29:43.106Z,92.9
2019-02-24T04:30:43.026Z,92.9
2019-02-24T04:31:43.075Z,92.9
2019-02-24T04:32:43.040Z,92.05
2019-02-24T04:33:43.048Z,91.96
2019-02-24T04:34:43.065Z,91.01
2019-02-24T04:35:43.077Z,90.63
2019-02-24T04:36:43.083Z,90.44
2019-02-24T04:37:43.094Z,90.54
2019-02-24T04:38:43.105Z,90.35
2019-02-24T04:39:43.125Z,89.87
2019-02-24T04:40:57.790Z,90.35
2019-02-24T04:41:43.150Z,89.59
2019-02-24T04:42:43.150Z,89.4
2019-02-24T04:43:43.166Z,89.87
2019-02-24T04:44:43.176Z,90.44
2019-02-24T04:45:43.183Z,90.63
2019-02-24T04:46:43.246Z,91.96
2019-02-24T04:47:43.211Z,92.9
2019-02-24T04:48:43.220Z,93.66
2019-02-24T04:49:43.229Z,92.9
2019-02-24T04:50:43.339Z,93.28
2019-02-24T04:51:43.256Z,93.94
2019-02-24T04:54:43.286Z,94.89
2019-02-24T04:55:43.300Z,95.73
2019-02-24T04:56:57.970Z,95.83
2019-02-24T04:57:43.322Z,95.92
2019-02-24T04:58:43.330Z,96.4
2019-02-24T04:59:43.345Z,96.59
2019-02-24T05:00:43.352Z,96.59
2019-02-24T05:01:43.364Z,96.78
2019-02-24T05:02:43.374Z,96.3
2019-02-24T05:03:43.393Z,96.49
2019-02-24T05:04:43.151Z,96.49
2019-02-24T05:05:43.406Z,96.49
2019-02-24T05:06:43.420Z,95.31
2019-02-24T05:08:43.490Z,93.04
2019-02-24T05:10:43.465Z,92.61
2019-02-24T05:11:43.475Z,92.43
2019-02-24T05:12:58.156Z,92.33
2019-02-24T05:13:43.531Z,91.67
2019-02-24T05:14:43.509Z,91.58
2019-02-24T05:15:43.517Z,91.29
2019-02-24T05:16:43.531Z,91.2
2019-02-24T05:17:43.540Z,91.29
2019-02-24T05:18:43.562Z,91.96
2019-02-24T05:19:43.563Z,91.67
2019-02-24T05:20:43.571Z,91.86
2019-02-24T05:21:43.587Z,91.86
2019-02-24T05:22:43.599Z,92.33
2019-02-24T05:23:45.528Z,92.1
2019-02-24T05:25:43.632Z,94.03
2019-02-24T05:26:43.642Z,95.07
2019-02-24T05:27:43.653Z,95.21
2019-02-24T05:28:58.324Z,95.78
2019-02-24T05:29:48.465Z,95.59
2019-02-24T05:30:43.683Z,96.44
2019-02-24T05:31:43.695Z,95.78
2019-02-24T05:32:43.705Z,96.44
2019-02-24T05:33:43.755Z,96.25
2019-02-24T05:34:43.729Z,96.63
2019-02-24T05:35:43.751Z,96.91
2019-02-24T05:36:43.749Z,97.01
2019-02-24T05:37:43.763Z,97.29
2019-02-24T05:38:43.772Z,97.2
2019-02-24T05:39:43.783Z,97.39
2019-02-24T05:40:43.797Z,97.77
2019-02-24T05:41:43.803Z,97.48
2019-02-24T05:42:45.037Z,97.29
2019-02-24T05:43:58.489Z,97.2
2019-02-24T05:44:43.839Z,97.01
2019-02-24T05:45:43.849Z,97.01
2019-02-24T05:46:43.859Z,97.2
2019-02-24T05:47:43.873Z,96.91
2019-02-24T05:48:43.886Z,96.91
2019-02-24T05:49:43.895Z,96.35
2019-02-24T05:50:43.904Z,95.68
2019-02-24T05:51:43.926Z,95.4
2019-02-24T05:52:43.925Z,96.02
2019-02-24T05:54:43.948Z,95.83
2019-02-24T05:55:43.958Z,95.64
2019-02-24T05:56:43.975Z,95.54
2019-02-24T05:57:43.984Z,95.45
2019-02-24T05:58:43.991Z,94.98
2019-02-24T05:59:44.006Z,94.89
2019-02-24T06:00:44.025Z,94.79
2019-02-24T06:01:44.025Z,94.7
2019-02-24T06:02:44.039Z,94.79
2019-02-24T06:03:44.047Z,94.7
2019-02-24T06:04:44.063Z,94.79
2019-02-24T06:05:44.125Z,95.26
2019-02-24T06:06:44.083Z,95.45
2019-02-24T06:07:44.113Z,96.02
2019-02-24T06:08:44.158Z,95.83
2019-02-24T06:09:44.119Z,95.92
2019-02-24T06:10:44.127Z,95.92
2019-02-24T06:11:44.137Z,96.21
2019-02-24T06:12:44.152Z,96.4
2019-02-24T06:13:44.172Z,96.59
2019-02-24T06:14:44.194Z,96.21
2019-02-24T06:15:58.843Z,96.3
2019-02-24T06:16:44.201Z,96.02
2019-02-24T06:17:44.209Z,95.54
2019-02-24T06:18:44.214Z,95.45
2019-02-24T06:19:44.226Z,95.54
2019-02-24T06:20:44.245Z,95.54
2019-02-24T06:21:44.249Z,95.26
2019-02-24T06:22:44.259Z,94.7
2019-02-24T06:23:44.271Z,94.51
2019-02-24T06:24:44.285Z,94.41
2019-02-24T06:25:44.302Z,94.22
2019-02-24T06:26:44.353Z,94.03
2019-02-24T06:27:44.415Z,94.03
2019-02-24T06:28:44.327Z,94.03
2019-02-24T06:29:44.340Z,94.22
2019-02-24T06:30:44.104Z,94.22
2019-02-24T06:31:59.030Z,93.75
2019-02-24T06:32:44.375Z,93.84
2019-02-24T06:33:44.384Z,93.09
2019-02-24T06:34:44.394Z,92.99
2019-02-24T06:35:44.407Z,92.71
2019-02-24T06:36:44.416Z,91.96
2019-02-24T06:37:44.426Z,92.33
2019-02-24T06:38:44.439Z,92.71
2019-02-24T06:39:44.201Z,93.09
2019-02-24T06:40:44.461Z,92.8
2019-02-24T06:41:44.476Z,92.9
2019-02-24T06:42:44.490Z,93.8
2019-02-24T06:43:44.498Z,93.7
2019-02-24T06:44:44.510Z,92.9
2019-02-24T06:45:44.517Z,93.13
2019-02-24T06:46:44.535Z,92.76
2019-02-24T06:47:59.203Z,92.94
2019-02-24T06:48:44.558Z,93.09
2019-02-24T06:49:44.566Z,93.09
2019-02-24T06:50:44.576Z,93.47
2019-02-24T06:51:44.592Z,92.99
2019-02-24T06:52:44.361Z,93.13
2019-02-24T06:53:44.612Z,93.32
2019-02-24T06:54:44.620Z,93.32
2019-02-24T06:55:44.633Z,92.94
2019-02-24T06:56:44.644Z,93.04
2019-02-24T06:57:44.656Z,92.85
2019-02-24T06:58:44.730Z,92.38
2019-02-24T06:59:44.729Z,92.47
2019-02-24T07:01:44.701Z,92.38
2019-02-24T07:02:44.711Z,92.19
2019-02-24T07:03:59.385Z,92.29
2019-02-24T07:04:44.734Z,92.19
2019-02-24T07:05:44.749Z,93.04
2019-02-24T07:06:44.757Z,92.57
2019-02-24T07:07:44.771Z,92.38
2019-02-24T07:08:44.781Z,92.57
2019-02-24T07:09:44.794Z,93.04
2019-02-24T07:10:44.804Z,92.76
2019-02-24T07:11:44.823Z,93.32
2019-02-24T07:12:44.826Z,92.76
2019-02-24T07:13:44.839Z,92.57
2019-02-24T07:14:44.852Z,92.76
2019-02-24T07:17:44.896Z,92.29
2019-02-24T07:18:59.558Z,92.1
2019-02-24T07:19:44.907Z,92.47
2019-02-24T07:20:44.919Z,92.76
2019-02-24T07:21:44.931Z,92.1
2019-02-24T07:22:44.942Z,91.53
2019-02-24T07:23:44.705Z,91.15
2019-02-24T07:24:44.963Z,91.01
2019-02-24T07:25:44.976Z,90.96
2019-02-24T07:26:44.987Z,91.1
2019-02-24T07:27:44.998Z,91.05
2019-02-24T07:28:45.009Z,91.1
2019-02-24T07:30:45.049Z,91.77
2019-02-24T07:31:45.046Z,91.58
2019-02-24T07:32:45.057Z,91.67
2019-02-24T07:33:45.070Z,91.48
2019-02-24T07:34:45.081Z,90.72
2019-02-24T07:35:45.092Z,90.63
2019-02-24T07:36:45.104Z,89.78
2019-02-24T07:37:45.117Z,89.31
2019-02-24T07:38:45.127Z,88.26
2019-02-24T07:39:45.140Z,88.07
2019-02-24T07:40:45.155Z,87.6
2019-02-24T07:41:45.164Z,87.7
2019-02-24T07:42:45.176Z,88.26
2019-02-24T07:43:45.187Z,88.17
2019-02-24T07:44:45.199Z,88.26
2019-02-24T07:45:45.213Z,88.07
2019-02-24T07:46:45.223Z,88.36
2019-02-24T07:47:45.234Z,88.17
2019-02-24T07:48:45.249Z,87.88
2019-02-24T07:49:45.260Z,87.98
2019-02-24T07:50:59.934Z,87.98
2019-02-24T07:51:45.283Z,88.26
2019-02-24T07:52:45.301Z,87.88
2019-02-24T07:53:45.309Z,87.51
2019-02-24T07:54:45.321Z,86.47
2019-02-24T07:55:45.335Z,87.23
2019-02-24T07:56:45.344Z,86.51
2019-02-24T07:57:45.367Z,85.94
2019-02-24T07:58:45.370Z,86.13
2019-02-24T07:59:45.381Z,85.66
2019-02-24T08:00:45.393Z,84.33
2019-02-24T08:01:45.407Z,83.86
2019-02-24T08:02:45.425Z,83.95
2019-02-24T08:03:45.433Z,84.05
2019-02-24T08:05:45.453Z,83.76
2019-02-24T08:07:00.130Z,84.14
2019-02-24T08:07:45.483Z,83.86
2019-02-24T08:08:45.493Z,84.33
2019-02-24T08:09:45.510Z,84.71
2019-02-24T08:10:45.516Z,84.81
2019-02-24T08:11:45.528Z,84.14
2019-02-24T08:12:45.543Z,83.29
2019-02-24T08:13:46.539Z,83.39
2019-02-24T08:14:45.565Z,83.48
2019-02-24T08:15:45.580Z,82.53
2019-02-24T08:16:45.590Z,82.44
2019-02-24T08:17:45.603Z,82.34
2019-02-24T08:18:52.090Z,82.34
2019-02-24T08:19:45.628Z,82.67
2019-02-24T08:20:45.730Z,82.2
2019-02-24T08:21:45.658Z,81.92
2019-02-24T08:23:00.329Z,80.96
2019-02-24T08:23:45.678Z,80.87
2019-02-24T08:24:45.691Z,80.3
2019-02-24T08:25:45.706Z,80.68
2019-02-24T08:26:45.768Z,80.58
2019-02-24T08:27:45.730Z,80.49
2019-02-24T08:28:45.743Z,80.21
2019-02-24T08:29:45.761Z,80.02
2019-02-24T08:30:45.781Z,79.36
2019-02-24T08:31:45.785Z,78.69
2019-02-24T08:32:45.795Z,78.59
2019-02-24T08:33:45.806Z,78.41
2019-02-24T08:34:45.821Z,78.59
2019-02-24T08:35:45.837Z,78.03
2019-02-24T08:36:45.856Z,78.03
2019-02-24T08:37:45.858Z,77.94
2019-02-24T08:39:00.535Z,77.18
2019-02-24T08:39:45.887Z,77.08
2019-02-24T08:40:45.898Z,77.75
2019-02-24T08:41:45.913Z,77.27
2019-02-24T08:42:45.925Z,76.99
2019-02-24T08:43:45.939Z,76.23
2019-02-24T08:44:45.953Z,76.99
2019-02-24T08:45:45.974Z,77.37
2019-02-24T08:46:45.979Z,77.18
2019-02-24T08:47:45.994Z,77.18
2019-02-24T08:48:46.008Z,77.56
2019-02-24T08:49:46.019Z,77.56
2019-02-24T08:50:46.084Z,77.65
2019-02-24T08:52:46.061Z,77.08
2019-02-24T08:54:00.737Z,76.32
2019-02-24T08:54:46.092Z,75.7
2019-02-24T08:55:46.103Z,75.79
2019-02-24T08:56:46.116Z,75.04
2019-02-24T08:57:46.133Z,73.99
2019-02-24T08:58:46.144Z,74.47
2019-02-24T08:59:46.158Z,73.99
2019-02-24T09:00:53.438Z,73.99
2019-02-24T09:01:46.191Z,73.05
2019-02-24T09:02:46.203Z,72.23
2019-02-24T09:03:46.217Z,72.52
2019-02-24T09:04:46.234Z,72.42
2019-02-24T09:07:46.277Z,72.14
2019-02-24T09:08:46.292Z,71.38
2019-02-24T09:09:46.312Z,71.28
2019-02-24T09:10:46.323Z,71.09
2019-02-24T09:11:46.342Z,70.62
2019-02-24T09:12:46.355Z,70.62
2019-02-24T09:13:46.369Z,71
2019-02-24T09:14:46.448Z,71.09
2019-02-24T09:15:46.411Z,70.94
2019-02-24T09:16:46.417Z,69.9
2019-02-24T09:17:46.439Z,69.61
2019-02-24T09:19:46.478Z,69.04
2019-02-24T09:20:46.480Z,68.95
2019-02-24T09:21:46.501Z,68.38
2019-02-24T09:23:46.530Z,67.62
2019-02-24T09:24:46.545Z,67.14
2019-02-24T09:26:01.224Z,68
2019-02-24T09:26:46.578Z,68.29
2019-02-24T09:27:46.602Z,67.24
2019-02-24T09:28:46.611Z,66.96
2019-02-24T09:29:46.626Z,66.86
2019-02-24T09:30:46.659Z,66.86
2019-02-24T09:31:46.659Z,66.2
2019-02-24T09:32:46.723Z,66.2
2019-02-24T09:33:46.694Z,65.91
2019-02-24T09:34:46.708Z,66.01
2019-02-24T09:35:46.730Z,65.91
2019-02-24T09:36:46.748Z,65.53
2019-02-24T09:37:46.757Z,65.25
2019-02-24T09:38:46.775Z,65.82
2019-02-24T09:39:46.796Z,65.16
2019-02-24T09:40:46.808Z,64.52
2019-02-24T09:42:01.496Z,65.37
2019-02-24T09:42:46.843Z,65.28
2019-02-24T09:43:46.857Z,65.09
2019-02-24T09:44:46.878Z,64.62
2019-02-24T09:45:46.892Z,64.14
2019-02-24T09:46:46.911Z,64.81
2019-02-24T09:47:49.609Z,64.81
2019-02-24T09:48:46.945Z,64.24
2019-02-24T09:49:46.960Z,63.95
2019-02-24T09:50:46.980Z,62.82
2019-02-24T09:51:46.994Z,62.72
2019-02-24T09:52:47.015Z,62.24
2019-02-24T09:53:47.029Z,62.15
2019-02-24T09:55:47.068Z,63.04
2019-02-24T09:56:47.083Z,62.85
2019-02-24T09:58:01.761Z,62.85
2019-02-24T09:58:47.115Z,61.61
2019-02-24T09:59:47.134Z,61.04
2019-02-24T10:00:46.903Z,61.71
2019-02-24T10:01:47.172Z,61.23
2019-02-24T10:02:47.187Z,61.04
2019-02-24T10:03:47.203Z,60.38
2019-02-24T10:04:47.221Z,60.1
2019-02-24T10:05:47.240Z,60.95
2019-02-24T10:06:47.308Z,60.76
2019-02-24T10:07:47.272Z,61.14
2019-02-24T10:08:47.290Z,60.38
2019-02-24T10:09:47.306Z,60.1
2019-02-24T10:10:47.330Z,60.03
2019-02-24T10:11:47.355Z,59.27
2019-02-24T10:12:47.366Z,58.7
2019-02-24T10:14:02.046Z,58.61
2019-02-24T10:14:47.399Z,58.89
2019-02-24T10:15:47.416Z,58.22
2019-02-24T10:16:47.431Z,58.7
2019-02-24T10:17:47.452Z,58.89
2019-02-24T10:18:47.468Z,58.98
2019-02-24T10:19:47.485Z,59.84
2019-02-24T10:20:47.502Z,58.8
2019-02-24T10:21:47.522Z,58.8
2019-02-24T10:22:47.538Z,58.32
2019-02-24T10:23:47.555Z,57.75
2019-02-24T10:25:47.596Z,58.03
2019-02-24T10:26:47.612Z,58.03
2019-02-24T10:27:47.629Z,58.51
2019-02-24T10:29:02.311Z,58.51
2019-02-24T10:29:47.669Z,58.7
2019-02-24T10:30:47.683Z,58.73
2019-02-24T10:31:47.839Z,59.3
2019-02-24T10:32:47.717Z,58.7
2019-02-24T10:33:47.738Z,58.73
2019-02-24T10:34:47.754Z,58.73
2019-02-24T10:35:47.827Z,58.83
2019-02-24T10:36:47.789Z,58.54
2019-02-24T10:37:47.811Z,59.01
2019-02-24T10:38:47.824Z,59.3
2019-02-24T10:39:47.843Z,58.83
2019-02-24T10:40:47.614Z,58.16
2019-02-24T10:41:47.879Z,57.11
2019-02-24T10:42:47.900Z,56.83
2019-02-24T10:43:47.915Z,56.04
2019-02-24T10:44:47.932Z,56.73
2019-02-24T10:45:47.948Z,56.89
2019-02-24T10:46:47.967Z,55.97
2019-02-24T10:47:48.008Z,55.3
2019-02-24T10:48:48.008Z,56.23
2019-02-24T10:49:48.020Z,56.54
2019-02-24T10:50:48.038Z,57.21
2019-02-24T10:51:48.055Z,55.88
2019-02-24T10:52:48.071Z,55.5
2019-02-24T10:53:48.151Z,56.83
2019-02-24T10:54:48.148Z,54.45
2019-02-24T10:56:48.140Z,54.36
2019-02-24T10:57:48.162Z,54.55
2019-02-24T10:58:48.174Z,54.26
2019-02-24T10:59:48.193Z,54.26
2019-02-24T11:01:02.872Z,54.93
2019-02-24T11:01:48.226Z,54.64
2019-02-24T11:02:48.244Z,55.43
2019-02-24T11:03:48.259Z,54.57
2019-02-24T11:04:48.945Z,54.67
2019-02-24T11:05:48.294Z,53.53
2019-02-24T11:06:48.312Z,52.96
2019-02-24T11:07:48.329Z,52.39
2019-02-24T11:08:48.365Z,51.06
2019-02-24T11:09:48.363Z,50.87
2019-02-24T11:10:48.379Z,50.27
2019-02-24T11:11:48.407Z,50.65
2019-02-24T11:12:48.415Z,50.84
2019-02-24T11:13:48.437Z,50.74
2019-02-24T11:14:48.448Z,50.65
2019-02-24T11:15:48.464Z,51.12
2019-02-24T11:17:03.146Z,50.29
2019-02-24T11:17:48.502Z,49.54
2019-02-24T11:18:48.516Z,48.96
2019-02-24T11:19:48.536Z,48.58
2019-02-24T11:21:48.566Z,49.73
2019-02-24T11:22:48.582Z,50.29
2019-02-24T11:23:48.601Z,49.91
2019-02-24T11:24:48.618Z,49.35
2019-02-24T11:25:48.634Z,48.61
2019-02-24T11:26:48.402Z,48.21
2019-02-24T11:27:48.668Z,49.25
2019-02-24T11:28:48.686Z,49.25
2019-02-24T11:29:48.702Z,48.68
2019-02-24T11:30:48.721Z,48.3
2019-02-24T11:31:48.745Z,49.25
2019-02-24T11:33:03.426Z,48.39
2019-02-24T11:33:48.773Z,47.37
2019-02-24T11:34:48.789Z,46.89
2019-02-24T11:35:48.805Z,46.61
2019-02-24T11:36:48.821Z,46.11
2019-02-24T11:37:48.840Z,45.18
2019-02-24T11:38:48.859Z,44.52
2019-02-24T11:39:48.873Z,44.8
2019-02-24T11:40:48.890Z,44.33
2019-02-24T11:41:48.909Z,43.85
2019-02-24T11:42:48.929Z,43.76
2019-02-24T11:43:48.941Z,44.9
2019-02-24T11:44:49.063Z,45.28
2019-02-24T11:45:48.978Z,44.8
2019-02-24T11:46:49.000Z,44.13
2019-02-24T11:47:49.010Z,43.66
2019-02-24T11:49:03.692Z,44.52
2019-02-24T11:49:49.044Z,44.52
2019-02-24T11:50:49.063Z,44.52
2019-02-24T11:51:49.079Z,43.95
2019-02-24T11:52:49.103Z,43.57
2019-02-24T11:53:49.114Z,43.19
2019-02-24T11:54:49.134Z,42.99
2019-02-24T11:55:49.249Z,42.33
2019-02-24T11:56:49.165Z,42.52
2019-02-24T11:57:49.182Z,42.9
2019-02-24T11:58:49.206Z,42.71
2019-02-24T11:59:49.217Z,42.04
2019-02-24T12:00:49.234Z,41.47
2019-02-24T12:01:50.263Z,40.62
2019-02-24T12:02:49.272Z,40.33
2019-02-24T12:04:03.951Z,41.28
2019-02-24T12:04:49.356Z,41.88
2019-02-24T12:05:49.321Z,41.88
2019-02-24T12:06:49.343Z,41.97
2019-02-24T12:07:49.356Z,41.88
2019-02-24T12:08:49.376Z,41.97
2019-02-24T12:09:49.395Z,41.59
2019-02-24T12:10:49.414Z,41.59
2019-02-24T12:11:49.426Z,41.3
2019-02-24T12:12:49.453Z,40.45
2019-02-24T12:13:49.461Z,39.78
2019-02-24T12:14:49.479Z,38.64
2019-02-24T12:15:49.496Z,37.12
2019-02-24T12:16:49.516Z,36.64
2019-02-24T12:17:49.533Z,37.21
2019-02-24T12:18:49.554Z,39.21
2019-02-24T12:19:49.567Z,38.26
2019-02-24T12:20:49.584Z,37.12
2019-02-24T12:21:49.605Z,37.04
2019-02-24T12:22:49.619Z,36.85
2019-02-24T12:23:49.690Z,36.76
2019-02-24T12:24:49.655Z,36.57
2019-02-24T12:25:49.672Z,34.85
2019-02-24T12:26:49.690Z,34.18
2019-02-24T12:27:49.708Z,33.78
2019-02-24T12:28:49.729Z,32.18
2019-02-24T12:29:49.744Z,31.9
2019-02-24T12:30:49.764Z,32.28
2019-02-24T12:31:58.682Z,31.99
2019-02-24T12:33:49.816Z,32.28
2019-02-24T12:34:49.833Z,32.95
2019-02-24T12:36:04.516Z,34.09
2019-02-24T12:36:49.875Z,33.9
2019-02-24T12:37:49.891Z,33.9
2019-02-24T12:38:49.902Z,33.51
2019-02-24T12:39:49.925Z,32.37
2019-02-24T12:40:49.940Z,31.04
2019-02-24T12:41:50.010Z,31.23
2019-02-24T12:42:49.975Z,29.61
2019-02-24T12:43:49.994Z,28.67
2019-02-24T12:44:50.021Z,28.39
2019-02-24T12:45:50.029Z,28.39
2019-02-24T12:46:50.045Z,30.49
2019-02-24T12:47:50.078Z,31.34
2019-02-24T12:48:50.082Z,31.44
2019-02-24T12:49:50.102Z,30.29
2019-02-24T12:50:50.122Z,28.86
2019-02-24T12:52:04.800Z,28.49
2019-02-24T12:52:50.156Z,28.58
2019-02-24T12:53:50.174Z,28.96
2019-02-24T12:54:50.188Z,29.82
2019-02-24T12:55:50.217Z,30.87
2019-02-24T12:56:50.230Z,30.49
2019-02-24T12:57:50.246Z,31.05
2019-02-24T12:58:50.261Z,31.15
2019-02-24T12:59:50.283Z,30.88
2019-02-24T13:00:50.298Z,31.16
2019-02-24T13:01:50.317Z,30.12
2019-02-24T13:03:50.354Z,28.86
2019-02-24T13:05:50.391Z,30.87
2019-02-24T13:06:50.409Z,30.39
2019-02-24T13:08:05.090Z,31.16
2019-02-24T13:08:50.447Z,30.79
2019-02-24T13:09:50.463Z,30.69
2019-02-24T13:10:50.480Z,31.16
2019-02-24T13:11:50.600Z,31.74
2019-02-24T13:12:50.520Z,32.03
2019-02-24T13:13:50.535Z,31.24
2019-02-24T13:14:50.562Z,31.34
2019-02-24T13:15:50.573Z,30.96
2019-02-24T13:16:50.591Z,30.69
2019-02-24T13:17:50.608Z,29.44
2019-02-24T13:18:50.649Z,28.67
2019-02-24T13:21:50.687Z,30.5
2019-02-24T13:22:50.710Z,31.07
2019-02-24T13:24:05.383Z,31.26
2019-02-24T13:24:50.737Z,30.58
2019-02-24T13:25:50.757Z,29.74
2019-02-24T13:26:50.775Z,30.68
2019-02-24T13:27:50.792Z,30.98
2019-02-24T13:28:53.142Z,31.07
2019-02-24T13:29:50.829Z,30.79
2019-02-24T13:30:50.847Z,31.74
2019-02-24T13:31:50.866Z,31.74
2019-02-24T13:33:50.906Z,31.74
2019-02-24T13:34:50.922Z,31.93
2019-02-24T13:35:50.941Z,32.03
2019-02-24T13:37:50.977Z,31.45
2019-02-24T13:39:05.660Z,30.6
2019-02-24T13:39:51.018Z,31.55
2019-02-24T13:40:51.031Z,30.6
2019-02-24T13:41:51.050Z,30.6
2019-02-24T13:42:51.070Z,31.55
2019-02-24T13:43:51.089Z,31.74
2019-02-24T13:44:51.105Z,31.15